createdAt,value
2018-04-04T00:00:35.479Z,98766.55
2018-04-04T00:03:04.679Z,98774.55
2018-04-04T00:05:34.681Z,98777.09
2018-04-04T00:08:03.917Z,98782.16
2018-04-04T00:10:33.156Z,98786.06
2018-04-04T00:13:02.348Z,98792.22
2018-04-04T00:15:31.514Z,98783.38
2018-04-04T00:18:00.712Z,98791.33
2018-04-04T00:20:29.926Z,98794.23
2018-04-04T00:22:59.142Z,98790.25
2018-04-04T00:25:28.538Z,98799.20
2018-04-04T00:27:57.782Z,98794.99
2018-04-04T00:30:27.756Z,98805.45
2018-04-04T00:32:56.969Z,98808.16
2018-04-04T00:35:26.156Z,98818.64
2018-04-04T00:37:55.374Z,98807.31
2018-04-04T00:40:24.560Z,98811.87
2018-04-04T00:42:53.773Z,98811.41
2018-04-04T00:45:23.052Z,98818.78
2018-04-04T00:47:52.223Z,98817.72
2018-04-04T00:50:21.466Z,98827.58
2018-04-04T00:52:51.638Z,98816.23
2018-04-04T00:55:20.824Z,98826.48
2018-04-04T00:57:50.052Z,98832.98
2018-04-04T01:00:19.248Z,98831.98
2018-04-04T01:02:48.458Z,98841.81
2018-04-04T01:05:17.658Z,98831.74
2018-04-04T01:07:46.880Z,98840.66
2018-04-04T01:10:16.111Z,98852.66
2018-04-04T01:12:45.331Z,98857.87
2018-04-04T01:15:14.553Z,98860.45
2018-04-04T01:17:43.781Z,98856.65
2018-04-04T01:20:13.812Z,98853.61
2018-04-04T01:22:43.122Z,98860.59
2018-04-04T01:25:12.286Z,98857.61
2018-04-04T01:27:42.255Z,98856.63
2018-04-04T01:30:11.483Z,98860.62
2018-04-04T01:32:40.703Z,98868.17
2018-04-04T01:35:10.727Z,98872.60
2018-04-04T01:37:39.954Z,98878.92
2018-04-04T01:40:09.173Z,98875.94
2018-04-04T01:42:38.366Z,98880.77
2018-04-04T01:45:07.581Z,98893.45
2018-04-04T01:47:36.802Z,98891.66
2018-04-04T01:50:06.787Z,98897.84
2018-04-04T01:52:35.995Z,98898.19
2018-04-04T01:55:05.234Z,98899.16
2018-04-04T01:57:34.470Z,98906.54
2018-04-04T02:00:03.687Z,98903.45
2018-04-04T02:02:32.890Z,98902.44
2018-04-04T02:05:02.135Z,98904.58
2018-04-04T02:07:31.382Z,98904.37
2018-04-04T02:10:00.642Z,98904.95
2018-04-04T02:12:29.828Z,98906.05
2018-04-04T02:14:59.023Z,98911.23
2018-04-04T02:17:28.244Z,98909.13
2018-04-04T02:19:57.454Z,98912.92
2018-04-04T02:22:26.666Z,98909.73
2018-04-04T02:24:55.867Z,98910.28
2018-04-04T02:27:25.083Z,98909.59
2018-04-04T02:29:55.047Z,98906.03
2018-04-04T02:32:24.259Z,98907.70
2018-04-04T02:34:53.491Z,98910.03
2018-04-04T02:37:23.471Z,98901.77
2018-04-04T02:39:52.689Z,98911.32
2018-04-04T02:42:21.902Z,98910.66
2018-04-04T02:44:51.879Z,98921.55
2018-04-04T02:47:21.071Z,98920.73
2018-04-04T02:49:50.316Z,98930.61
2018-04-04T02:52:20.267Z,98926.38
2018-04-04T02:54:49.487Z,98930.22
2018-04-04T02:57:18.692Z,98929.25
2018-04-04T02:59:47.908Z,98928.91
2018-04-04T03:02:17.094Z,98929.39
2018-04-04T03:04:46.554Z,98927.55
2018-04-04T03:07:15.752Z,98927.69
2018-04-04T03:09:45.016Z,98924.58
2018-04-04T03:12:14.978Z,98931.63
2018-04-04T03:14:44.195Z,98929.48
2018-04-04T03:17:13.373Z,98926.73
2018-04-04T03:19:42.575Z,98924.50
2018-04-04T03:22:11.796Z,98917.94
2018-04-04T03:24:40.991Z,98924.48
2018-04-04T03:27:10.226Z,98924.38
2018-04-04T03:29:40.224Z,98926.64
2018-04-04T03:32:10.190Z,98928.83
2018-04-04T03:34:39.515Z,98925.01
2018-04-04T03:37:08.694Z,98928.62
2018-04-04T03:39:37.892Z,98931.16
2018-04-04T03:42:07.191Z,98927.34
2018-04-04T03:44:36.410Z,98924.84
2018-04-04T03:47:05.596Z,98920.59
2018-04-04T03:49:34.796Z,98931.09
2018-04-04T03:52:03.977Z,98914.81
2018-04-04T03:54:33.214Z,98910.48
2018-04-04T03:57:02.408Z,98905.72
2018-04-04T03:59:31.614Z,98894.61
2018-04-04T04:02:00.877Z,98899.20
2018-04-04T04:04:30.224Z,98893.67
2018-04-04T04:07:00.174Z,98885.53
2018-04-04T04:09:29.403Z,98890.77
2018-04-04T04:11:58.621Z,98883.63
2018-04-04T04:14:27.801Z,98883.02
2018-04-04T04:16:57.800Z,98882.41
2018-04-04T04:19:27.747Z,98878.95
2018-04-04T04:21:56.958Z,98880.42
2018-04-04T04:24:26.190Z,98875.70
2018-04-04T04:26:55.383Z,98872.91
2018-04-04T04:29:24.581Z,98865.17
2018-04-04T04:31:53.770Z,98862.00
2018-04-04T04:34:22.948Z,98865.81
2018-04-04T04:36:52.891Z,98861.85
2018-04-04T04:39:22.080Z,98863.16
2018-04-04T04:41:52.292Z,98862.15
2018-04-04T04:44:21.495Z,98864.90
2018-04-04T04:46:50.697Z,98868.55
2018-04-04T04:49:19.895Z,98872.87
2018-04-04T04:51:49.207Z,98875.13
2018-04-04T04:54:18.387Z,98866.59
2018-04-04T04:56:47.626Z,98874.16
2018-04-04T04:59:16.819Z,98877.61
2018-04-04T05:01:46.035Z,98879.64
2018-04-04T05:04:15.319Z,98884.38
2018-04-04T05:06:44.517Z,98887.09
2018-04-04T05:09:13.905Z,98885.62
2018-04-04T05:11:43.880Z,98881.58
2018-04-04T05:14:13.106Z,98885.25
2018-04-04T05:16:42.302Z,98881.22
2018-04-04T05:19:11.684Z,98874.34
2018-04-04T05:21:41.692Z,98879.80
2018-04-04T05:24:10.918Z,98876.68
2018-04-04T05:26:40.163Z,98877.29
2018-04-04T05:29:09.438Z,98871.63
2018-04-04T05:31:38.633Z,98867.25
2018-04-04T05:34:07.851Z,98867.35
2018-04-04T05:36:37.774Z,98858.79
2018-04-04T05:39:07.744Z,98857.08
2018-04-04T05:41:36.939Z,98863.37
2018-04-04T05:44:06.388Z,98875.28
2018-04-04T05:46:35.590Z,98870.90
2018-04-04T05:49:04.794Z,98866.51
2018-04-04T05:51:34.781Z,98872.69
2018-04-04T05:54:03.995Z,98869.22
2018-04-04T05:56:33.196Z,98862.52
2018-04-04T05:59:03.186Z,98861.34
2018-04-04T06:01:32.396Z,98860.36
2018-04-04T06:04:02.078Z,98866.84
2018-04-04T06:06:31.325Z,98867.02
2018-04-04T06:09:01.328Z,98869.24
2018-04-04T06:11:30.559Z,98874.56
2018-04-04T06:13:59.759Z,98868.64
2018-04-04T06:16:28.945Z,98869.89
2018-04-04T06:18:58.922Z,98875.78
2018-04-04T06:21:28.967Z,98871.01
2018-04-04T06:23:59.066Z,98865.94
2018-04-04T06:26:28.247Z,98866.80
2018-04-04T06:28:57.517Z,98854.62
2018-04-04T06:31:26.726Z,98854.20
2018-04-04T06:33:56.546Z,98848.16
2018-04-04T06:36:25.802Z,98847.73
2018-04-04T06:38:55.011Z,98853.73
2018-04-04T06:41:24.997Z,98844.59
2018-04-04T06:43:54.339Z,98840.92
2018-04-04T06:46:23.522Z,98837.55
2018-04-04T06:48:53.495Z,98843.76
2018-04-04T06:51:22.735Z,98830.70
2018-04-04T06:53:52.698Z,98837.63
2018-04-04T06:56:21.923Z,98854.20
2018-04-04T06:58:51.898Z,98858.16
2018-04-04T07:01:21.331Z,98862.59
2018-04-04T07:03:50.526Z,98857.53
2018-04-04T07:06:19.771Z,98866.27
2018-04-04T07:08:49.020Z,98864.80
2018-04-04T07:11:18.267Z,98856.73
2018-04-04T07:13:47.542Z,98865.00
2018-04-04T07:16:17.534Z,98857.96
2018-04-04T07:18:46.736Z,98861.88
2018-04-04T07:21:15.946Z,98856.54
2018-04-04T07:23:46.298Z,98863.81
2018-04-04T07:26:15.499Z,98866.94
2018-04-04T07:28:44.721Z,98862.08
2018-04-04T07:31:13.926Z,98864.02
2018-04-04T07:33:43.155Z,98862.27
2018-04-04T07:36:13.369Z,98856.73
2018-04-04T07:38:42.593Z,98866.33
2018-04-04T07:41:12.588Z,98863.35
2018-04-04T07:43:42.535Z,98859.25
2018-04-04T07:46:11.735Z,98864.57
2018-04-04T07:48:40.923Z,98865.11
2018-04-04T07:51:10.277Z,98872.42
2018-04-04T07:53:39.488Z,98877.47
2018-04-04T07:56:08.703Z,98872.22
2018-04-04T07:58:38.671Z,98869.30
2018-04-04T08:01:07.893Z,98874.80
2018-04-04T08:03:37.126Z,98875.60
2018-04-04T08:06:06.347Z,98885.36
2018-04-04T08:08:35.536Z,98888.46
2018-04-04T08:11:04.749Z,98879.28
2018-04-04T08:13:33.940Z,98879.69
2018-04-04T08:16:03.158Z,98882.70
2018-04-04T08:18:32.383Z,98886.25
2018-04-04T08:21:01.590Z,98889.33
2018-04-04T08:23:31.582Z,98884.78
2018-04-04T08:26:00.827Z,98885.02
2018-04-04T08:28:30.080Z,98884.64
2018-04-04T08:30:59.269Z,98880.78
2018-04-04T08:33:28.473Z,98872.60
2018-04-04T08:35:57.665Z,98871.05
2018-04-04T08:38:26.927Z,98879.83
2018-04-04T08:40:56.106Z,98867.63
2018-04-04T08:43:25.440Z,98874.83
2018-04-04T08:45:54.663Z,98871.66
2018-04-04T08:48:23.866Z,98864.91
2018-04-04T08:50:53.091Z,98868.63
2018-04-04T08:53:23.107Z,98862.10
2018-04-04T08:55:52.339Z,98863.73
2018-04-04T08:58:21.570Z,98859.52
2018-04-04T09:00:50.804Z,98861.27
2018-04-04T09:03:20.058Z,98851.38
2018-04-04T09:05:49.363Z,98856.61
2018-04-04T09:08:18.575Z,98849.28
2018-04-04T09:10:47.812Z,98849.08
2018-04-04T09:13:17.024Z,98855.36
2018-04-04T09:15:46.229Z,98851.81
2018-04-04T09:18:15.435Z,98848.17
2018-04-04T09:33:44.651Z,98822.46
2018-04-04T09:36:14.693Z,98817.58
2018-04-04T09:38:44.004Z,98823.27
2018-04-04T09:41:13.220Z,98821.05
2018-04-04T09:43:42.458Z,98827.34
2018-04-04T09:46:11.670Z,98820.83
2018-04-04T09:48:41.698Z,98818.80
2018-04-04T09:51:10.938Z,98812.02
2018-04-04T09:53:40.150Z,98806.95
2018-04-04T09:56:09.367Z,98813.59
2018-04-04T09:58:39.363Z,98803.83
2018-04-04T10:01:08.549Z,98799.70
2018-04-04T10:03:37.808Z,98799.58
2018-04-04T10:06:07.017Z,98791.03
2018-04-04T10:08:36.225Z,98778.99
2018-04-04T10:11:05.448Z,98779.64
2018-04-04T10:13:34.664Z,98777.56
2018-04-04T10:16:03.879Z,98777.23
2018-04-04T10:18:33.882Z,98782.78
2018-04-04T10:21:03.190Z,98784.56
2018-04-04T10:23:32.392Z,98784.16
2018-04-04T10:26:02.418Z,98782.41
2018-04-04T10:28:32.514Z,98790.01
2018-04-04T10:31:01.723Z,98779.24
2018-04-04T10:33:31.761Z,98763.41
2018-04-04T10:36:01.043Z,98765.56
2018-04-04T10:38:30.311Z,98759.14
2018-04-04T10:40:59.731Z,98757.34
2018-04-04T10:43:29.745Z,98751.81
2018-04-04T10:45:58.929Z,98763.93
2018-04-04T10:48:28.200Z,98769.19
2018-04-04T10:50:57.416Z,98760.58
2018-04-04T10:53:26.607Z,98754.52
2018-04-04T10:55:55.883Z,98749.03
2018-04-04T10:58:25.870Z,98751.16
2018-04-04T11:00:55.191Z,98754.66
2018-04-04T11:03:24.393Z,98749.36
2018-04-04T11:05:53.636Z,98738.73
2018-04-04T11:08:23.810Z,98734.91
2018-04-04T11:10:53.970Z,98730.20
2018-04-04T11:13:23.208Z,98737.28
2018-04-04T11:15:52.447Z,98721.59
2018-04-04T11:18:21.654Z,98718.15
2018-04-04T11:20:50.900Z,98713.98
2018-04-04T11:23:20.895Z,98717.12
2018-04-04T11:25:50.912Z,98719.48
2018-04-04T11:28:20.155Z,98709.84
2018-04-04T11:30:49.404Z,98709.47
2018-04-04T11:33:18.710Z,98714.05
2018-04-04T11:35:48.709Z,98700.08
2018-04-04T11:38:17.936Z,98703.41
2018-04-04T11:40:47.163Z,98703.86
2018-04-04T11:43:16.413Z,98699.00
2018-04-04T11:45:46.521Z,98696.25
2018-04-04T11:48:15.746Z,98699.78
2018-04-04T11:50:45.708Z,98710.05
2018-04-04T11:53:14.932Z,98712.83
2018-04-04T11:55:44.131Z,98715.22
2018-04-04T11:58:13.345Z,98713.45
2018-04-04T12:00:42.528Z,98719.72
2018-04-04T12:03:11.757Z,98728.16
2018-04-04T12:05:41.780Z,98727.24
2018-04-04T12:08:10.978Z,98724.72
2018-04-04T12:10:40.937Z,98719.84
2018-04-04T12:13:10.147Z,98720.44
2018-04-04T12:15:39.343Z,98714.58
2018-04-04T12:18:10.064Z,98714.97
2018-04-04T12:20:39.258Z,98713.58
2018-04-04T12:23:08.474Z,98710.21
2018-04-04T12:25:37.675Z,98707.83
2018-04-04T12:28:06.916Z,98709.53
2018-04-04T12:30:36.492Z,98708.18
2018-04-04T12:33:05.756Z,98699.80
2018-04-04T12:35:35.009Z,98703.97
2018-04-04T12:38:04.289Z,98693.62
2018-04-04T12:40:34.302Z,98691.47
2018-04-04T12:43:03.510Z,98688.80
2018-04-04T12:45:32.709Z,98687.45
2018-04-04T12:48:01.902Z,98687.26
2018-04-04T12:50:31.911Z,98680.05
2018-04-04T12:53:01.152Z,98677.13
2018-04-04T12:55:30.430Z,98680.06
2018-04-04T12:57:59.581Z,98683.42
2018-04-04T13:00:28.778Z,98678.32
2018-04-04T13:02:58.019Z,98682.62
2018-04-04T13:05:27.304Z,98678.52
2018-04-04T13:07:57.344Z,98684.19
2018-04-04T13:10:26.570Z,98680.06
2018-04-04T13:12:55.799Z,98684.97
2018-04-04T13:15:25.031Z,98680.47
2018-04-04T13:17:54.280Z,98677.77
2018-04-04T13:20:23.619Z,98679.13
2018-04-04T13:22:53.659Z,98687.56
2018-04-04T13:25:22.863Z,98688.50
2018-04-04T13:27:52.085Z,98685.38
2018-04-04T13:30:21.524Z,98683.03
2018-04-04T13:32:51.674Z,98683.98
2018-04-04T13:35:20.865Z,98685.55
2018-04-04T13:50:50.111Z,98683.34
2018-04-04T13:53:19.332Z,98685.50
2018-04-04T13:55:48.578Z,98684.91
2018-04-04T13:58:18.572Z,98683.95
2018-04-04T14:00:47.759Z,98689.42
2018-04-04T14:03:17.005Z,98688.82
2018-04-04T14:05:46.168Z,98688.42
2018-04-04T14:08:15.472Z,98687.84
2018-04-04T14:10:45.416Z,98689.19
2018-04-04T14:13:14.669Z,98689.34
2018-04-04T14:15:44.630Z,98679.19
2018-04-04T14:18:14.033Z,98681.92
2018-04-04T14:20:43.269Z,98668.02
2018-04-04T14:23:13.245Z,98664.72
2018-04-04T14:25:42.533Z,98664.94
2018-04-04T14:28:12.098Z,98656.52
2018-04-04T14:30:41.338Z,98656.55
2018-04-04T14:33:10.606Z,98659.27
2018-04-04T14:35:39.823Z,98658.31
2018-04-04T14:38:09.018Z,98656.55
2018-04-04T14:40:38.271Z,98656.36
2018-04-04T14:43:07.527Z,98676.10
2018-04-04T14:45:36.738Z,98679.62
2018-04-04T14:48:05.988Z,98685.47
2018-04-04T14:50:35.210Z,98693.30
2018-04-04T14:53:04.415Z,98687.02
2018-04-04T14:55:33.638Z,98680.55
2018-04-04T14:58:02.873Z,98683.30
2018-04-04T15:00:32.098Z,98679.95
2018-04-04T15:03:01.589Z,98676.45
2018-04-04T15:05:30.764Z,98676.67
2018-04-04T15:08:01.515Z,98675.49
2018-04-04T15:10:30.757Z,98676.11
2018-04-04T15:12:59.971Z,98674.73
2018-04-04T15:15:29.829Z,98670.27
2018-04-04T15:17:59.043Z,98666.36
2018-04-04T15:20:28.255Z,98672.80
2018-04-04T15:22:57.483Z,98676.86
2018-04-04T15:25:27.507Z,98676.48
2018-04-04T15:27:56.722Z,98666.89
2018-04-04T15:30:25.965Z,98675.45
2018-04-04T15:32:55.195Z,98664.89
2018-04-04T15:35:24.434Z,98669.55
2018-04-04T15:37:53.694Z,98675.58
2018-04-04T15:40:23.655Z,98674.41
2018-04-04T15:42:52.871Z,98664.06
2018-04-04T15:45:22.103Z,98667.97
2018-04-04T15:47:52.251Z,98659.77
2018-04-04T15:50:21.762Z,98655.08
2018-04-04T15:52:51.783Z,98654.89
2018-04-04T15:55:20.982Z,98661.52
2018-04-04T15:57:50.206Z,98658.98
2018-04-04T16:00:19.406Z,98643.95
2018-04-04T16:02:48.611Z,98651.34
2018-04-04T16:05:17.841Z,98655.05
2018-04-04T16:07:47.853Z,98649.00
2018-04-04T16:10:17.860Z,98641.78
2018-04-04T16:12:47.089Z,98647.08
2018-04-04T16:15:16.668Z,98647.47
2018-04-04T16:17:46.644Z,98645.55
2018-04-04T16:20:15.890Z,98643.62
2018-04-04T16:22:45.136Z,98636.97
2018-04-04T16:25:14.379Z,98638.95
2018-04-04T16:27:43.605Z,98645.00
2018-04-04T16:30:13.581Z,98635.05
2018-04-04T16:32:42.777Z,98644.61
2018-04-04T16:35:12.018Z,98657.49
2018-04-04T16:37:41.291Z,98652.81
2018-04-04T16:40:11.298Z,98665.89
2018-04-04T16:42:40.696Z,98669.02
2018-04-04T16:45:09.886Z,98667.63
2018-04-04T16:47:39.151Z,98659.59
2018-04-04T16:50:08.388Z,98665.84
2018-04-04T16:52:37.734Z,98671.87
2018-04-04T16:55:06.989Z,98662.89
2018-04-04T16:57:36.967Z,98659.15
2018-04-04T17:00:06.226Z,98659.34
2018-04-04T17:02:35.459Z,98644.55
2018-04-04T17:05:04.681Z,98649.98
2018-04-04T17:07:33.919Z,98643.48
2018-04-04T17:10:03.924Z,98634.12
2018-04-04T17:12:34.006Z,98634.89
2018-04-04T17:15:03.200Z,98633.31
2018-04-04T17:17:32.506Z,98629.41
2018-04-04T17:20:01.741Z,98624.08
2018-04-04T17:22:30.968Z,98620.38
2018-04-04T17:25:00.166Z,98625.83
2018-04-04T17:27:29.429Z,98612.34
2018-04-04T17:29:59.227Z,98612.14
2018-04-04T17:32:28.452Z,98613.48
2018-04-04T17:34:57.688Z,98612.70
2018-04-04T17:37:26.939Z,98611.88
2018-04-04T17:39:56.898Z,98618.31
2018-04-04T17:42:26.117Z,98625.09
2018-04-04T17:44:55.365Z,98624.08
2018-04-04T17:47:24.618Z,98620.95
2018-04-04T17:49:53.827Z,98615.08
2018-04-04T17:52:23.071Z,98630.82
2018-04-04T17:54:52.317Z,98632.77
2018-04-04T17:57:21.557Z,98629.45
2018-04-04T17:59:52.628Z,98630.18
2018-04-04T18:02:21.899Z,98639.88
2018-04-04T18:04:51.132Z,98639.44
2018-04-04T18:07:20.398Z,98636.50
2018-04-04T18:09:50.330Z,98633.54
2018-04-04T18:12:19.526Z,98642.11
2018-04-04T18:14:48.764Z,98632.30
2018-04-04T18:17:18.880Z,98644.38
2018-04-04T18:19:48.146Z,98645.73
2018-04-04T18:22:17.377Z,98650.34
2018-04-04T18:24:46.597Z,98653.41
2018-04-04T18:27:15.836Z,98646.61
2018-04-04T18:29:45.048Z,98657.10
2018-04-04T18:32:14.261Z,98651.71
2018-04-04T18:34:43.469Z,98654.42
2018-04-04T18:37:12.696Z,98651.24
2018-04-04T18:39:42.858Z,98645.80
2018-04-04T18:42:12.160Z,98649.63
2018-04-04T18:44:41.299Z,98654.08
2018-04-04T18:47:11.394Z,98651.89
2018-04-04T18:49:40.639Z,98653.25
2018-04-04T18:52:10.637Z,98656.73
2018-04-04T18:54:39.858Z,98660.17
2018-04-04T18:57:09.066Z,98668.14
2018-04-04T18:59:38.280Z,98665.16
2018-04-04T19:02:07.558Z,98663.59
2018-04-04T19:04:36.790Z,98665.14
2018-04-04T19:07:05.997Z,98665.46
2018-04-04T19:09:35.214Z,98667.72
2018-04-04T19:12:05.193Z,98671.34
2018-04-04T19:14:34.444Z,98679.88
2018-04-04T19:17:03.660Z,98683.52
2018-04-04T19:19:32.887Z,98678.45
2018-04-04T19:22:02.101Z,98694.91
2018-04-04T19:24:31.370Z,98696.38
2018-04-04T19:27:00.589Z,98699.47
2018-04-04T19:29:29.798Z,98692.97
2018-04-04T19:31:58.999Z,98689.66
2018-04-04T19:34:28.274Z,98691.20
2018-04-04T19:36:57.506Z,98700.12
2018-04-04T19:39:27.514Z,98696.53
2018-04-04T19:41:56.746Z,98701.81
2018-04-04T19:44:26.732Z,98699.48
2018-04-04T19:46:56.701Z,98706.25
2018-04-04T19:49:25.931Z,98721.02
2018-04-04T19:51:55.184Z,98721.75
2018-04-04T19:54:24.452Z,98725.12
2018-04-04T19:56:54.439Z,98718.67
2018-04-04T19:59:23.695Z,98726.34
2018-04-04T20:01:52.948Z,98726.45
2018-04-04T20:04:22.178Z,98725.50
2018-04-04T20:06:51.409Z,98723.00
2018-04-04T20:09:20.628Z,98719.48
2018-04-04T20:11:49.844Z,98716.53
2018-04-04T20:14:19.055Z,98708.12
2018-04-04T20:16:48.272Z,98710.22
2018-04-04T20:19:17.547Z,98710.80
2018-04-04T20:21:47.553Z,98706.65
2018-04-04T20:24:16.743Z,98708.22
2018-04-04T20:26:45.966Z,98707.05
2018-04-04T20:29:15.199Z,98705.45
2018-04-04T20:31:44.492Z,98707.41
2018-04-04T20:34:15.418Z,98699.23
2018-04-04T20:36:45.614Z,98698.38
2018-04-04T20:39:14.813Z,98698.02
2018-04-04T20:41:44.071Z,98696.70
2018-04-04T20:44:13.263Z,98700.73
2018-04-04T20:46:42.499Z,98692.14
2018-04-04T20:49:12.479Z,98689.06
2018-04-04T20:51:42.033Z,98683.56
2018-04-04T20:54:11.976Z,98679.30
2018-04-04T20:56:41.187Z,98681.97
2018-04-04T20:59:10.450Z,98685.32
2018-04-04T21:01:39.698Z,98690.57
2018-04-04T21:04:08.905Z,98685.71
2018-04-04T21:06:38.690Z,98680.29
2018-04-04T21:09:07.923Z,98682.19
2018-04-04T21:11:37.155Z,98672.78
2018-04-04T21:14:06.390Z,98675.36
2018-04-04T21:16:35.644Z,98679.86
2018-04-04T21:19:05.633Z,98686.47
2018-04-04T21:21:34.852Z,98690.05
2018-04-04T21:24:04.897Z,98688.52
2018-04-04T21:26:34.245Z,98692.41
2018-04-04T21:29:03.442Z,98681.97
2018-04-04T21:31:32.691Z,98682.09
2018-04-04T21:34:01.905Z,98690.47
2018-04-04T21:36:31.128Z,98692.97
2018-04-04T21:39:00.322Z,98692.20
2018-04-04T21:41:29.964Z,98705.67
2018-04-04T21:44:00.061Z,98699.91
2018-04-04T21:46:29.355Z,98698.92
2018-04-04T21:48:59.359Z,98698.94
2018-04-04T21:51:28.628Z,98701.86
2018-04-04T21:53:58.019Z,98701.38
2018-04-04T21:56:27.221Z,98693.98
2018-04-04T21:58:56.651Z,98695.16
2018-04-04T22:01:25.893Z,98701.77
2018-04-04T22:03:55.141Z,98704.71
2018-04-04T22:06:24.353Z,98704.71
2018-04-04T22:08:53.564Z,98709.07
2018-04-04T22:11:22.775Z,98711.25
2018-04-04T22:13:52.829Z,98705.48
2018-04-04T22:16:22.015Z,98704.59
2018-04-04T22:18:51.251Z,98710.25
2018-04-04T22:21:20.575Z,98709.60
2018-04-04T22:23:49.785Z,98704.02
2018-04-04T22:26:19.023Z,98711.61
2018-04-04T22:28:48.248Z,98716.28
2018-04-04T22:31:17.482Z,98713.29
2018-04-04T22:33:46.716Z,98705.91
2018-04-04T22:36:15.954Z,98708.91
2018-04-04T22:38:45.179Z,98709.46
2018-04-04T22:41:15.168Z,98704.22
2018-04-04T22:43:44.530Z,98700.91
2018-04-04T22:46:13.766Z,98714.84
2018-04-04T22:48:42.975Z,98717.77
2018-04-04T22:51:12.184Z,98722.09
2018-04-04T22:53:42.185Z,98725.59
2018-04-04T22:56:11.403Z,98732.73
2018-04-04T22:58:40.618Z,98733.19
2018-04-04T23:01:09.842Z,98731.56
2018-04-04T23:03:39.038Z,98736.72
2018-04-04T23:06:08.265Z,98732.92
2018-04-04T23:08:38.982Z,98736.42
2018-04-04T23:11:08.207Z,98730.98
2018-04-04T23:13:37.461Z,98724.16
2018-04-04T23:16:06.916Z,98735.47
2018-04-04T23:18:36.895Z,98737.80
2018-04-04T23:21:06.128Z,98728.95
2018-04-04T23:23:35.363Z,98730.86
2018-04-04T23:26:04.571Z,98732.61
2018-04-04T23:28:33.807Z,98730.86
2018-04-04T23:31:03.853Z,98736.30
2018-04-04T23:33:33.821Z,98737.84
2018-04-04T23:36:03.048Z,98735.65
2018-04-04T23:38:32.288Z,98743.61
2018-04-04T23:41:01.539Z,98743.97
2018-04-04T23:43:30.764Z,98749.83
2018-04-04T23:46:00.958Z,98749.83
2018-04-04T23:48:30.217Z,98757.64
2018-04-04T23:50:59.516Z,98756.77
2018-04-04T23:53:28.792Z,98758.70
2018-04-04T23:55:58.001Z,98756.00
2018-04-04T23:58:27.235Z,98760.95
